Time;durP1;ratioP1;P1;durP2;ratioP2;P2;SDS_P1;SDS_P2;PMS_P1;PMS_P2;Temp;Humidity;BMP_temperature;BMP_pressure;BME280_temperature;BME280_humidity;BME280_pressure;Samples;Min_cycle;Max_cycle;Signal;HPM_P1;HPM_P2
2023/03/26 00:01:14;;;;;;;1.40;1.10;;;;;;;5.89;100.00;95592.41;5086987;28;20473;-78
2023/03/26 00:03:45;;;;;;;1.33;1.23;;;;;;;5.76;100.00;95572.41;5080487;28;20476;-78
2023/03/26 00:06:15;;;;;;;1.60;1.20;;;;;;;5.83;100.00;95597.03;5072133;28;20439;-77
2023/03/26 00:09:00;;;;;;;3.50;1.50;;;;;;;5.54;100.00;95534.03;5069890;28;20435;-77
2023/03/26 00:11:28;;;;;;;1.13;1.00;;;;;;;5.86;100.00;95572.81;5084014;28;20474;-77
2023/03/26 00:13:56;;;;;;;6.83;1.77;;;;;;;5.90;100.00;95579.00;5073802;28;20420;-77
2023/03/26 00:16:26;;;;;;;1.57;1.17;;;;;;;5.57;100.00;95523.69;5086286;28;20423;-77
2023/03/26 00:18:53;;;;;;;1.77;1.23;;;;;;;5.75;100.00;95561.13;5058969;28;20542;-77
2023/03/26 00:21:26;;;;;;;2.20;1.40;;;;;;;5.86;100.00;95582.53;5089765;28;20545;-77
2023/03/26 00:23:57;;;;;;;2.10;1.30;;;;;;;5.83;100.00;95575.28;5113623;28;20426;-78
2023/03/26 00:26:25;;;;;;;3.27;1.90;;;;;;;5.82;100.00;95584.25;5077672;28;20435;-78
2023/03/26 00:28:53;;;;;;;4.30;1.77;;;;;;;5.61;100.00;95550.84;5065966;28;20816;-78
2023/03/26 00:31:20;;;;;;;2.33;1.67;;;;;;;5.44;100.00;95523.91;5057413;28;20463;-77
2023/03/26 00:33:54;;;;;;;1.13;1.03;;;;;;;5.59;100.00;95546.97;5074456;28;20443;-78
2023/03/26 00:36:24;;;;;;;1.10;1.00;;;;;;;5.33;100.00;95505.09;5079814;28;20422;-78
2023/03/26 00:38:52;;;;;;;4.50;1.33;;;;;;;5.70;100.00;95563.91;5092837;28;20419;-78
2023/03/26 00:41:23;;;;;;;2.60;1.40;;;;;;;5.49;100.00;95526.38;5067542;28;20452;-78
2023/03/26 00:43:56;;;;;;;1.40;1.10;;;;;;;5.79;100.00;95572.53;5072168;28;20435;-78
2023/03/26 00:46:24;;;;;;;2.67;1.80;;;;;;;5.28;100.00;95490.31;5069842;28;20865;-78
2023/03/26 00:48:51;;;;;;;4.77;1.60;;;;;;;5.58;100.00;95540.97;5090805;28;20542;-77
2023/03/26 00:51:20;;;;;;;2.07;1.30;;;;;;;5.81;100.00;95572.22;5086203;28;20981;-78
2023/03/26 00:53:48;;;;;;;1.07;1.03;;;;;;;5.54;100.00;95532.19;5092894;28;20431;-78
2023/03/26 00:56:16;;;;;;;2.40;1.43;;;;;;;5.80;100.00;95568.81;5086215;28;20431;-77
2023/03/26 00:58:43;;;;;;;5.40;1.60;;;;;;;5.79;100.00;95577.00;5096603;28;20429;-78
2023/03/26 01:01:17;;;;;;;2.20;1.13;;;;;;;5.77;100.00;95581.81;5096771;28;20483;-78
2023/03/26 01:03:45;;;;;;;2.70;1.47;;;;;;;5.69;100.00;95562.38;5064471;28;20492;-77
2023/03/26 01:06:34;;;;;;;4.93;1.33;;;;;;;5.48;100.00;95525.59;5082409;28;20449;-77
2023/03/26 01:09:17;;;;;;;2.30;1.33;;;;;;;5.74;100.00;95571.91;5081399;28;20440;-77
2023/03/26 01:11:46;;;;;;;5.10;1.60;;;;;;;5.75;100.00;95568.25;5106841;28;20469;-77
2023/03/26 01:14:22;;;;;;;3.17;1.70;;;;;;;5.76;100.00;95569.78;5084611;28;20925;-77
2023/03/26 01:16:54;;;;;;;3.00;1.60;;;;;;;5.62;100.00;95559.47;5077847;28;20557;-77
2023/03/26 01:19:36;;;;;;;3.00;1.57;;;;;;;5.74;100.00;95567.44;5070485;28;20438;-77
2023/03/26 01:22:09;;;;;;;6.33;1.37;;;;;;;5.75;100.00;95574.25;5066828;28;20496;-77
2023/03/26 01:24:38;;;;;;;1.80;1.23;;;;;;;5.74;100.00;95571.91;5061903;28;20785;-77
2023/03/26 01:27:20;;;;;;;6.30;2.27;;;;;;;5.74;100.00;95570.06;5087488;28;20411;-77
2023/03/26 01:30:00;;;;;;;11.70;2.00;;;;;;;5.75;100.00;95568.25;5060155;28;20445;-77
2023/03/26 01:32:42;;;;;;;7.27;2.37;;;;;;;5.73;100.00;95573.00;5087245;28;20471;-77
2023/03/26 01:35:29;;;;;;;1.90;1.60;;;;;;;5.57;100.00;95543.91;5083327;28;20404;-77
2023/03/26 01:38:09;;;;;;;3.17;1.57;;;;;;;5.55;100.00;95538.22;5062765;28;20887;-77
2023/03/26 01:40:48;;;;;;;1.87;0.90;;;;;;;5.75;100.00;95568.25;5081414;28;20474;-77
2023/03/26 01:43:20;;;;;;;4.83;1.57;;;;;;;5.75;100.00;95561.13;5085844;28;20453;-77
2023/03/26 01:45:48;;;;;;;2.40;1.67;;;;;;;5.54;100.00;95534.03;5089719;28;20423;-77
2023/03/26 01:48:16;;;;;;;1.77;1.17;;;;;;;5.41;100.00;95511.41;5083870;28;20442;-77
2023/03/26 01:50:43;;;;;;;1.30;1.20;;;;;;;5.77;100.00;95556.34;5062283;28;20470;-77
2023/03/26 01:53:12;;;;;;;2.17;1.80;;;;;;;5.64;100.00;95531.09;5106004;28;20509;-77
2023/03/26 01:55:48;;;;;;;6.57;2.20;;;;;;;5.77;100.00;95552.97;5090497;28;20467;-77
2023/03/26 01:58:34;;;;;;;2.30;1.63;;;;;;;5.59;100.00;95528.63;5075756;28;20873;-77
2023/03/26 02:01:18;;;;;;;2.10;1.20;;;;;;;5.75;100.00;95545.41;5070299;28;20488;-77
2023/03/26 02:04:05;;;;;;;3.57;1.30;;;;;;;5.76;100.00;95554.81;5078614;28;20438;-77
2023/03/26 02:06:36;;;;;;;3.50;1.50;;;;;;;5.72;100.00;95538.16;5081806;28;20443;-77
2023/03/26 02:09:07;;;;;;;2.30;1.30;;;;;;;5.72;100.00;95547.88;5094463;28;20466;-77
2023/03/26 02:11:37;;;;;;;3.10;1.20;;;;;;;5.70;100.00;95545.56;5071900;28;20984;-77
2023/03/26 02:14:05;;;;;;;3.03;2.00;;;;;;;5.57;100.00;95536.03;5082761;28;20885;-78
2023/03/26 02:16:32;;;;;;;1.93;1.33;;;;;;;5.66;100.00;95543.88;5080715;28;20442;-78
2023/03/26 02:18:59;;;;;;;4.03;1.60;;;;;;;5.60;100.00;95538.78;5070702;28;20439;-78
2023/03/26 02:21:27;;;;;;;4.10;1.60;;;;;;;5.32;100.00;95504.34;5071899;28;20451;-78
2023/03/26 02:24:02;;;;;;;2.33;1.40;;;;;;;5.44;100.00;95522.03;5082773;28;20457;-78
2023/03/26 02:26:36;;;;;;;4.87;1.83;;;;;;;5.42;100.00;95524.22;5063561;28;20859;-78
2023/03/26 02:29:11;;;;;;;2.90;1.47;;;;;;;5.39;100.00;95513.59;5083508;28;20526;-78
2023/03/26 02:31:40;;;;;;;5.70;1.60;;;;;;;5.18;100.00;95482.03;5074595;28;20464;-78
2023/03/26 02:34:07;;;;;;;5.63;2.33;;;;;;;5.22;100.00;95486.34;5054771;28;20432;-77
2023/03/26 02:36:36;;;;;;;2.40;2.10;;;;;;;5.36;100.00;95514.22;5071403;28;20462;-77
2023/03/26 02:39:04;;;;;;;5.60;1.83;;;;;;;5.49;100.00;95539.47;5089633;28;21029;-77
2023/03/26 02:41:34;;;;;;;4.33;1.53;;;;;;;5.19;100.00;95494.81;5083989;28;20866;-77
2023/03/26 02:44:05;;;;;;;3.20;1.60;;;;;;;5.32;100.00;95509.56;5081461;28;20435;-77
2023/03/26 02:46:52;;;;;;;7.80;2.13;;;;;;;5.28;100.00;95506.06;5072695;28;20802;-77
2023/03/26 02:49:39;;;;;;;4.00;1.60;;;;;;;5.41;100.00;95521.91;5040974;28;20865;-77
2023/03/26 02:52:06;;;;;;;3.30;1.50;;;;;;;5.46;100.00;95530.34;5068943;28;20847;-77
2023/03/26 02:54:34;;;;;;;2.87;1.70;;;;;;;5.47;100.00;95528.50;5079157;28;20423;-77
2023/03/26 02:57:07;;;;;;;3.40;1.80;;;;;;;5.36;100.00;95503.72;5083749;28;20882;-77
2023/03/26 02:59:53;;;;;;;6.07;1.60;;;;;;;5.39;100.00;95511.72;5069313;28;20432;-77
2023/03/26 03:02:51;;;;;;;7.30;1.60;;;;;;;5.21;100.00;95482.19;5078998;28;20797;-77
2023/03/26 03:05:18;;;;;;;3.77;1.20;;;;;;;5.26;100.00;95489.09;5093278;28;20431;-77
2023/03/26 03:07:57;;;;;;;4.40;2.40;;;;;;;5.00;100.00;95450.63;5074672;28;20451;-77
2023/03/26 03:10:26;;;;;;;5.37;1.77;;;;;;;5.38;100.00;95512.06;5061544;28;20455;-77
2023/03/26 03:13:07;;;;;;;6.80;1.80;;;;;;;5.31;100.00;95494.16;5064019;28;20435;-77
2023/03/26 03:15:35;;;;;;;1.80;1.50;;;;;;;5.11;100.00;95466.03;5069631;28;20794;-77
2023/03/26 03:18:02;;;;;;;4.40;1.80;;;;;;;5.32;100.00;95499.09;5075178;28;20512;-77
2023/03/26 03:20:34;;;;;;;3.17;1.77;;;;;;;5.33;100.00;95499.88;5059179;28;20958;-77
2023/03/26 03:23:00;;;;;;;3.10;1.90;;;;;;;5.09;100.00;95468.97;5071131;28;20427;-77
2023/03/26 03:25:29;;;;;;;7.00;2.03;;;;;;;5.18;100.00;95479.41;5073357;28;20493;-77
2023/03/26 03:27:55;;;;;;;4.20;1.63;;;;;;;5.23;100.00;95482.66;5072914;28;20439;-77
2023/03/26 03:30:22;;;;;;;6.10;2.00;;;;;;;5.26;100.00;95489.88;5066807;28;20455;-77
2023/03/26 03:33:12;;;;;;;4.17;1.63;;;;;;;5.25;100.00;95483.09;5065916;28;20408;-77
2023/03/26 03:35:40;;;;;;;4.43;1.90;;;;;;;5.24;100.00;95476.31;5066891;28;20787;-77
2023/03/26 03:38:07;;;;;;;4.10;1.90;;;;;;;5.27;100.00;95480.16;5054417;28;20535;-77
2023/03/26 03:40:43;;;;;;;2.40;1.60;;;;;;;5.46;100.00;95521.72;5057996;28;20973;-77
2023/03/26 03:43:10;;;;;;;4.00;1.57;;;;;;;5.40;100.00;95505.41;5063509;28;21011;-77
2023/03/26 03:45:46;;;;;;;8.93;2.20;;;;;;;5.23;100.00;95479.25;5063161;28;20442;-77
2023/03/26 03:48:36;;;;;;;5.80;1.67;;;;;;;5.19;100.00;95471.22;5070932;28;20831;-77
2023/03/26 03:51:05;;;;;;;7.23;2.00;;;;;;;5.19;100.00;95465.22;5062157;28;20533;-77
2023/03/26 03:54:01;;;;;;;4.83;1.93;;;;;;;5.29;100.00;95478.00;5065123;28;20439;-77
2023/03/26 03:56:51;;;;;;;2.47;1.33;;;;;;;5.26;100.00;95487.25;5077459;28;20439;-77
2023/03/26 03:59:37;;;;;;;5.07;2.23;;;;;;;5.24;100.00;95481.56;5050123;28;20806;-77
2023/03/26 04:02:13;;;;;;;4.77;1.60;;;;;;;5.41;100.00;95514.03;5082707;28;20452;-77
2023/03/26 04:04:49;;;;;;;8.10;1.50;;;;;;;5.23;100.00;95487.13;5070540;28;20494;-77
2023/03/26 04:07:18;;;;;;;7.80;2.20;;;;;;;5.40;100.00;95509.88;5060833;28;20443;-77
2023/03/26 04:10:04;;;;;;;18.83;2.67;;;;;;;5.23;100.00;95480.03;5092426;28;20462;-77
2023/03/26 04:13:06;;;;;;;2.97;1.80;;;;;;;5.30;100.00;95493.41;5028262;28;20438;-77
2023/03/26 04:15:56;;;;;;;6.57;2.10;;;;;;;5.18;100.00;95476.78;5062424;28;20439;-77
2023/03/26 04:18:25;;;;;;;4.53;1.97;;;;;;;4.85;100.00;95426.78;5065992;28;20440;-77
2023/03/26 04:20:54;;;;;;;3.40;1.93;;;;;;;5.21;100.00;95490.06;5065485;28;21052;-77
2023/03/26 04:23:25;;;;;;;5.37;1.87;;;;;;;5.03;100.00;95463.09;5075912;28;20439;-77
2023/03/26 04:26:03;;;;;;;5.80;2.53;;;;;;;5.25;100.00;95490.97;5066929;28;20525;-77
2023/03/26 04:28:58;;;;;;;8.43;2.47;;;;;;;5.04;100.00;95461.25;5095078;28;20427;-77
2023/03/26 04:31:29;;;;;;;5.10;1.63;;;;;;;5.14;100.00;95478.50;5061178;28;20842;-77
2023/03/26 04:34:14;;;;;;;7.20;2.90;;;;;;;5.13;100.00;95488.22;5061219;28;20512;-77
2023/03/26 04:36:53;;;;;;;4.37;1.83;;;;;;;5.13;100.00;95488.22;5077164;28;20443;-77
2023/03/26 04:39:28;;;;;;;7.50;2.03;;;;;;;5.07;100.00;95475.56;5074611;28;20579;-77
2023/03/26 04:42:14;;;;;;;5.73;2.03;;;;;;;4.88;100.00;95460.22;5088771;28;20406;-77
2023/03/26 04:44:55;;;;;;;12.90;2.70;;;;;;;4.92;100.00;95476.84;5087869;28;20459;-77
2023/03/26 04:47:22;;;;;;;3.47;2.10;;;;;;;4.84;100.00;95475.78;5076790;28;20447;-77
2023/03/26 04:49:49;;;;;;;6.17;1.93;;;;;;;4.68;100.00;95457.16;5084387;28;20462;-77
2023/03/26 04:52:17;;;;;;;4.13;2.10;;;;;;;4.66;100.00;95443.59;5064146;28;20458;-77
2023/03/26 04:54:56;;;;;;;4.10;2.47;;;;;;;4.74;100.00;95471.63;5087893;28;20973;-77
2023/03/26 04:57:32;;;;;;;6.00;2.30;;;;;;;5.06;100.00;95493.13;5062941;28;20482;-77
2023/03/26 05:00:15;;;;;;;8.70;1.73;;;;;;;4.84;100.00;95465.31;5069503;28;20460;-77
2023/03/26 05:02:49;;;;;;;14.97;2.47;;;;;;;4.66;100.00;95429.72;5067965;28;20474;-77
2023/03/26 05:05:17;;;;;;;5.10;2.93;;;;;;;4.92;100.00;95484.69;5074198;28;20445;-77
2023/03/26 05:07:44;;;;;;;5.70;2.03;;;;;;;5.02;100.00;95487.75;5085219;28;20465;-77
2023/03/26 05:10:15;;;;;;;5.63;2.73;;;;;;;5.09;100.00;95497.00;5049660;28;20470;-77
2023/03/26 05:12:48;;;;;;;13.00;2.90;;;;;;;5.07;100.00;95493.91;5086150;28;20584;-77
2023/03/26 05:15:24;;;;;;;4.67;1.97;;;;;;;4.83;100.00;95449.91;5066061;28;20541;-77
2023/03/26 05:18:31;;;;;;;2.40;1.60;;;;;;;4.82;100.00;95445.75;5069327;28;20439;-78
2023/03/26 05:20:59;;;;;;;5.43;1.70;;;;;;;5.00;100.00;95474.22;5070285;28;20976;-77
2023/03/26 05:23:26;;;;;;;3.73;1.67;;;;;;;4.65;100.00;95418.50;5044121;28;20539;-77
2023/03/26 05:26:08;;;;;;;5.33;1.87;;;;;;;5.07;100.00;95472.94;5089179;28;20423;-77
2023/03/26 05:28:35;;;;;;;2.47;2.07;;;;;;;4.87;100.00;95456.06;5066382;28;20439;-77
2023/03/26 05:31:16;;;;;;;3.77;2.20;;;;;;;4.71;100.00;95435.59;5080090;28;20591;-77
2023/03/26 05:33:47;;;;;;;5.63;2.67;;;;;;;4.59;100.00;95438.06;5064612;28;20456;-77
2023/03/26 05:36:16;;;;;;;9.73;3.33;;;;;;;4.73;100.00;95475.31;5079124;28;20544;-77
2023/03/26 05:38:48;;;;;;;4.63;2.10;;;;;;;4.52;100.00;95434.38;5083785;28;20462;-77
2023/03/26 05:41:35;;;;;;;2.60;2.07;;;;;;;4.62;100.00;95431.44;5084736;28;20516;-77
2023/03/26 05:44:02;;;;;;;4.03;2.43;;;;;;;4.35;100.00;95438.53;5063451;28;20904;-77
2023/03/26 05:46:29;;;;;;;7.93;2.47;;;;;;;4.63;100.00;95459.91;5086866;28;20529;-77
2023/03/26 05:48:57;;;;;;;7.40;3.80;;;;;;;4.47;100.00;95437.16;5070622;28;21001;-77
2023/03/26 05:51:24;;;;;;;9.60;3.63;;;;;;;4.52;100.00;95442.97;5067646;28;20493;-77
2023/03/26 05:54:00;;;;;;;5.10;3.23;;;;;;;4.35;100.00;95443.75;5086378;28;20449;-77
2023/03/26 05:57:02;;;;;;;5.40;2.20;;;;;;;4.27;100.00;95426.22;5005539;28;20473;-77
2023/03/26 05:59:49;;;;;;;8.87;3.67;;;;;;;4.47;100.00;95437.16;5057995;28;20505;-77
2023/03/26 06:02:34;;;;;;;8.53;2.77;;;;;;;4.68;100.00;95448.53;5061951;28;20408;-77
2023/03/26 06:05:19;;;;;;;6.70;1.93;;;;;;;4.56;100.00;95417.75;5088031;28;20484;-77
2023/03/26 06:08:06;;;;;;;5.20;2.27;;;;;;;4.52;100.00;95392.50;5072841;28;20443;-77
2023/03/26 06:10:38;;;;;;;4.53;3.00;;;;;;;4.84;100.00;95420.78;5080462;28;21021;-77
2023/03/26 06:13:05;;;;;;;6.13;2.37;;;;;;;4.96;100.00;95436.63;5082770;28;20463;-77
2023/03/26 06:15:34;;;;;;;7.30;2.00;;;;;;;4.58;100.00;95354.63;5088538;28;20457;-77
2023/03/26 06:18:13;;;;;;;6.10;2.70;;;;;;;5.18;100.00;95425.16;5074956;28;20446;-77
2023/03/26 06:21:06;;;;;;;9.10;2.50;;;;;;;5.34;100.00;95434.06;5080498;28;20448;-77
2023/03/26 06:23:42;;;;;;;7.50;2.90;;;;;;;5.00;100.00;95395.63;5053514;28;20824;-77
2023/03/26 06:26:25;;;;;;;7.03;3.47;;;;;;;5.04;100.00;95407.00;5064883;28;20480;-77
2023/03/26 06:29:19;;;;;;;7.43;3.23;;;;;;;5.26;100.00;95426.97;5051501;28;20552;-77
2023/03/26 06:32:04;;;;;;;7.10;2.30;;;;;;;5.00;100.00;95392.25;5089206;28;20470;-77
2023/03/26 06:34:50;;;;;;;5.73;2.30;;;;;;;5.02;100.00;95383.00;5089550;28;20419;-77
2023/03/26 06:37:17;;;;;;;32.27;13.30;;;;;;;5.05;100.00;95373.72;5085902;28;20525;-77
2023/03/26 06:39:55;;;;;;;15.77;9.67;;;;;;;5.13;100.00;95370.31;5065612;28;20801;-77
2023/03/26 06:42:41;;;;;;;12.10;6.30;;;;;;;5.23;100.00;95356.88;5064628;28;20959;-78
2023/03/26 06:45:52;;;;;;;9.97;2.80;;;;;;;5.22;100.00;95363.19;5089375;28;20432;-78
2023/03/26 06:48:28;;;;;;;5.43;2.40;;;;;;;5.46;100.00;95367.84;5093239;28;20415;-78
2023/03/26 06:51:12;;;;;;;7.93;2.60;;;;;;;5.47;100.00;95356.28;5045398;28;20588;-78
2023/03/26 06:53:57;;;;;;;11.17;2.53;;;;;;;5.58;100.00;95367.94;5095835;28;20445;-78
2023/03/26 06:56:41;;;;;;;6.67;2.30;;;;;;;5.60;100.00;95368.38;5086349;28;20832;-78
2023/03/26 06:59:27;;;;;;;8.03;2.60;;;;;;;5.28;100.00;95285.16;5059728;28;20448;-78
2023/03/26 07:02:12;;;;;;;3.10;1.80;;;;;;;5.60;100.00;95344.00;5096007;28;20503;-78
2023/03/26 07:04:57;;;;;;;10.07;3.40;;;;;;;5.91;100.00;95385.66;5086502;28;20406;-78
2023/03/26 07:07:43;;;;;;;6.03;2.33;;;;;;;5.97;100.00;95360.00;5095222;28;20502;-77
2023/03/26 07:10:31;;;;;;;3.87;1.90;;;;;;;5.97;100.00;95370.50;5096229;28;20442;-77
2023/03/26 07:13:17;;;;;;;6.80;3.17;;;;;;;5.98;100.00;95380.66;5098480;28;20451;-77
2023/03/26 07:16:22;;;;;;;10.33;3.63;;;;;;;5.99;100.00;95371.72;5055100;28;20945;-78
2023/03/26 07:19:12;;;;;;;5.50;3.77;;;;;;;6.19;100.00;95391.19;5064217;28;20436;-78
2023/03/26 07:21:40;;;;;;;6.47;2.47;;;;;;;6.21;100.00;95389.00;5058098;28;20943;-77
2023/03/26 07:24:42;;;;;;;7.93;3.57;;;;;;;6.04;100.00;95371.53;5028967;28;20465;-77
2023/03/26 07:27:35;;;;;;;8.23;3.27;;;;;;;6.22;100.00;95374.78;5076715;28;20438;-77
2023/03/26 07:30:53;;;;;;;8.23;2.77;;;;;;;6.35;100.00;95367.72;5077937;28;20447;-77
2023/03/26 07:33:55;;;;;;;6.00;3.13;;;;;;;6.33;100.00;95323.44;5076637;28;20467;-77
2023/03/26 07:36:52;;;;;;;6.63;2.50;;;;;;;6.56;100.00;95354.59;5055044;28;20437;-78
2023/03/26 07:40:06;;;;;;;7.40;3.33;;;;;;;6.51;100.00;95342.41;5107770;28;20499;-79
2023/03/26 07:43:18;;;;;;;2.97;2.37;;;;;;;6.66;100.00;95331.28;5065920;28;20439;-78
2023/03/26 07:46:13;;;;;;;6.50;2.70;;;;;;;6.78;100.00;95339.19;5066784;28;20944;-77
2023/03/26 07:49:00;;;;;;;5.67;1.90;;;;;;;6.68;100.00;95317.84;5072392;28;20436;-78
2023/03/26 07:51:56;;;;;;;6.00;2.07;;;;;;;6.68;100.00;95309.97;5083460;28;20463;-77
2023/03/26 07:54:43;;;;;;;6.07;2.13;;;;;;;6.62;100.00;95308.63;5081665;28;20436;-77
2023/03/26 07:57:44;;;;;;;6.70;3.10;;;;;;;6.86;100.00;95336.81;5112323;28;20438;-77
2023/03/26 08:00:28;;;;;;;11.47;2.70;;;;;;;6.53;100.00;95300.84;5049189;28;20460;-77
2023/03/26 08:03:08;;;;;;;4.13;2.43;;;;;;;6.94;100.00;95330.66;5070358;28;20436;-77
2023/03/26 08:06:22;;;;;;;7.10;3.20;;;;;;;6.82;100.00;95321.69;5068548;28;20522;-77
2023/03/26 08:09:27;;;;;;;6.43;2.83;;;;;;;6.68;100.00;95283.69;5079294;28;20462;-77
2023/03/26 08:12:56;;;;;;;7.40;1.90;;;;;;;6.95;100.00;95317.22;5080292;28;20451;-77
2023/03/26 08:15:40;;;;;;;9.50;4.37;;;;;;;6.86;100.00;95286.88;5057770;28;20546;-77
2023/03/26 08:18:26;;;;;;;9.67;5.00;;;;;;;7.19;100.00;95318.31;5074704;28;20460;-78
2023/03/26 08:20:59;;;;;;;5.63;2.50;;;;;;;7.07;100.00;95300.69;5082153;28;20521;-77
2023/03/26 08:24:09;;;;;;;5.60;2.80;;;;;;;7.27;100.00;95317.44;5071235;28;20939;-77
2023/03/26 08:26:56;;;;;;;5.07;2.00;;;;;;;7.34;100.00;95296.63;5077414;28;20439;-78
2023/03/26 08:29:35;;;;;;;7.20;2.50;;;;;;;7.42;100.00;95293.09;5079876;28;20412;-78
2023/03/26 08:32:04;;;;;;;8.27;2.30;;;;;;;7.52;100.00;95287.41;5064459;28;20981;-78
2023/03/26 08:34:31;;;;;;;9.00;2.40;;;;;;;7.44;100.00;95269.09;5086081;28;20837;-78
2023/03/26 08:36:58;;;;;;;4.60;2.30;;;;;;;7.30;100.00;95251.06;5065493;28;21012;-77
2023/03/26 08:39:24;;;;;;;8.80;2.70;;;;;;;7.33;100.00;95274.06;5092833;28;20423;-78
2023/03/26 08:42:10;;;;;;;4.50;1.90;;;;;;;7.45;100.00;95292.44;5062750;28;20852;-77
2023/03/26 08:44:46;;;;;;;2.90;2.10;;;;;;;7.45;100.00;95296.94;5048883;28;20445;-77
2023/03/26 08:47:26;;;;;;;5.93;2.00;;;;;;;7.31;100.00;95287.53;5061735;28;20438;-77
2023/03/26 08:50:09;;;;;;;4.30;3.20;;;;;;;7.30;100.00;95288.63;5066019;28;20488;-77
2023/03/26 08:53:04;;;;;;;9.67;3.97;;;;;;;7.21;100.00;95277.47;5073072;28;20482;-77
2023/03/26 08:55:56;;;;;;;8.03;2.50;;;;;;;7.30;100.00;95274.72;5066338;28;20879;-77
2023/03/26 08:58:57;;;;;;;6.70;4.27;;;;;;;7.34;100.00;95272.94;5077587;28;20435;-77
2023/03/26 09:01:48;;;;;;;5.60;2.67;;;;;;;7.22;100.00;95273.00;5069911;28;20567;-77
2023/03/26 09:04:46;;;;;;;7.40;2.37;;;;;;;7.21;100.00;95272.22;5067683;28;20435;-78
2023/03/26 09:07:28;;;;;;;4.30;1.97;;;;;;;7.21;100.00;95256.44;5059604;28;20949;-77
2023/03/26 09:09:55;;;;;;;3.80;2.60;;;;;;;7.30;100.00;95256.31;5064575;28;20807;-77
2023/03/26 09:12:43;;;;;;;6.80;2.67;;;;;;;7.28;100.00;95253.25;5093009;28;20454;-78
2023/03/26 09:15:45;;;;;;;3.93;2.03;;;;;;;7.28;100.00;95250.63;5086487;28;20920;-77
2023/03/26 09:18:21;;;;;;;6.73;2.10;;;;;;;7.30;100.00;95240.53;5035543;28;20431;-77
2023/03/26 09:21:33;;;;;;;7.30;2.43;;;;;;;7.38;100.00;95235.16;5074973;28;20463;-77
2023/03/26 09:24:09;;;;;;;7.13;2.27;;;;;;;7.45;100.00;95233.81;5046921;28;20470;-77
2023/03/26 09:26:45;;;;;;;6.97;1.57;;;;;;;7.58;100.00;95228.19;5064146;28;20439;-77
2023/03/26 09:29:30;;;;;;;4.73;2.13;;;;;;;7.56;100.00;95219.13;5084052;28;20841;-77
2023/03/26 09:32:28;;;;;;;8.17;2.90;;;;;;;7.59;100.00;95207.94;5070660;28;20457;-77
2023/03/26 09:35:10;;;;;;;11.10;5.43;;;;;;;7.64;100.00;95203.22;5069641;28;20478;-77
2023/03/26 09:38:10;;;;;;;6.00;3.03;;;;;;;7.63;100.00;95201.69;5080892;28;20881;-77
2023/03/26 09:41:17;;;;;;;3.50;2.30;;;;;;;7.48;100.00;95202.41;5066602;28;20454;-77
2023/03/26 09:44:13;;;;;;;29.60;16.80;;;;;;;7.19;100.00;95171.13;5083587;28;20937;-76
2023/03/26 09:47:18;;;;;;;9.43;4.33;;;;;;;7.27;100.00;95193.88;5056951;28;20468;-76
2023/03/26 09:50:00;;;;;;;44.37;19.63;;;;;;;7.28;100.00;95193.56;5065782;28;20467;-76
2023/03/26 09:52:49;;;;;;;41.20;21.10;;;;;;;7.05;100.00;95189.88;5061073;28;20490;-76
2023/03/26 09:55:31;;;;;;;47.50;25.60;;;;;;;6.99;100.00;95199.09;5064453;28;20442;-76
2023/03/26 09:58:03;;;;;;;8.87;4.33;;;;;;;6.78;100.00;95204.47;5094097;28;20442;-76
2023/03/26 10:00:45;;;;;;;26.60;15.90;;;;;;;6.59;100.00;95196.38;5093937;28;20455;-76
2023/03/26 10:03:42;;;;;;;14.73;8.80;;;;;;;6.44;100.00;95182.81;5086485;28;20427;-76
2023/03/26 10:06:13;;;;;;;7.83;4.90;;;;;;;6.53;100.00;95191.31;5075959;28;20447;-76
2023/03/26 10:09:08;;;;;;;12.83;11.57;;;;;;;6.49;100.00;95190.44;5060660;28;20953;-76
2023/03/26 10:12:23;;;;;;;7.40;2.40;;;;;;;6.45;100.00;95189.59;5052843;28;20459;-76
2023/03/26 10:15:08;;;;;;;12.03;2.50;;;;;;;6.43;100.00;95194.41;5077116;28;20439;-75
2023/03/26 10:17:47;;;;;;;8.47;2.27;;;;;;;6.31;100.00;95188.38;5075770;28;20538;-76
2023/03/26 10:20:45;;;;;;;10.77;4.43;;;;;;;6.11;100.00;95164.50;5075668;28;20467;-75
2023/03/26 10:23:32;;;;;;;16.87;9.47;;;;;;;6.26;100.00;95186.69;5093716;28;20440;-75
2023/03/26 10:26:27;;;;;;;6.30;3.20;;;;;;;6.19;100.00;95187.25;5093777;28;20416;-76
2023/03/26 10:29:16;;;;;;;5.80;3.27;;;;;;;6.10;100.00;95181.31;5073067;28;20468;-75
2023/03/26 10:32:11;;;;;;;5.77;3.03;;;;;;;6.07;100.00;95186.47;5071263;28;20451;-75
2023/03/26 10:34:47;;;;;;;6.47;3.13;;;;;;;6.01;100.00;95185.91;5114339;28;20418;-77
2023/03/26 10:37:44;;;;;;;8.73;3.20;;;;;;;5.95;100.00;95187.19;5082411;28;20506;-77
2023/03/26 10:40:53;;;;;;;6.73;3.10;;;;;;;5.69;100.00;95182.16;5073684;28;20439;-77
2023/03/26 10:43:32;;;;;;;8.57;2.50;;;;;;;5.78;100.00;95188.09;5014849;28;20434;-77
2023/03/26 10:46:12;;;;;;;7.77;2.33;;;;;;;5.74;100.00;95187.19;5071197;28;20879;-77
2023/03/26 10:48:59;;;;;;;3.67;2.83;;;;;;;5.78;100.00;95180.25;5075256;28;20466;-77
2023/03/26 10:51:50;;;;;;;11.33;2.30;;;;;;;5.82;100.00;95182.97;5103288;28;20442;-76
2023/03/26 10:54:55;;;;;;;5.30;2.50;;;;;;;5.88;100.00;95187.72;5095218;28;20810;-77
2023/03/26 10:57:35;;;;;;;9.43;2.70;;;;;;;5.93;100.00;95181.50;5113499;28;20517;-77
2023/03/26 11:00:15;;;;;;;6.17;2.53;;;;;;;6.05;100.00;95176.28;5067331;28;20478;-77
2023/03/26 11:03:21;;;;;;;2.80;1.73;;;;;;;5.88;100.00;95182.47;5075267;28;20416;-77
2023/03/26 11:05:52;;;;;;;7.03;3.47;;;;;;;5.95;100.00;95170.69;5035647;28;20514;-76
2023/03/26 11:08:29;;;;;;;2.90;2.10;;;;;;;5.91;100.00;95155.59;5058075;28;20450;-77
2023/03/26 11:11:15;;;;;;;8.43;3.00;;;;;;;5.91;100.00;95167.97;5092750;28;20447;-76
2023/03/26 11:13:47;;;;;;;4.37;1.93;;;;;;;5.62;100.00;95153.09;5074467;28;20495;-76
2023/03/26 11:16:38;;;;;;;6.53;3.17;;;;;;;5.83;100.00;95166.91;5074482;28;20459;-76
2023/03/26 11:19:15;;;;;;;5.00;2.33;;;;;;;5.58;100.00;95137.22;5058195;28;20747;-76
2023/03/26 11:21:51;;;;;;;5.17;1.77;;;;;;;5.73;100.00;95166.56;5074466;28;20897;-77
2023/03/26 11:24:36;;;;;;;12.23;2.67;;;;;;;5.52;100.00;95119.41;5088119;28;20470;-77
2023/03/26 11:27:09;;;;;;;3.83;2.47;;;;;;;5.71;100.00;95160.88;5094896;28;20454;-77
2023/03/26 11:30:00;;;;;;;2.73;1.67;;;;;;;5.68;100.00;95148.41;5112832;28;20414;-76
2023/03/26 11:32:40;;;;;;;3.67;1.57;;;;;;;5.42;100.00;95128.44;5094511;28;20966;-76
2023/03/26 11:35:25;;;;;;;2.80;1.83;;;;;;;5.59;100.00;95157.13;5112262;28;20422;-76
2023/03/26 11:38:14;;;;;;;6.33;1.90;;;;;;;5.46;100.00;95154.75;5112828;28;20471;-77
2023/03/26 11:40:47;;;;;;;3.77;1.87;;;;;;;5.39;100.00;95118.59;5079285;28;20442;-76
2023/03/26 11:43:28;;;;;;;3.40;1.90;;;;;;;5.35;100.00;95099.38;5054288;28;20444;-77
2023/03/26 11:45:55;;;;;;;2.23;2.03;;;;;;;5.71;100.00;95140.66;5070955;28;20443;-76
2023/03/26 11:48:29;;;;;;;4.87;2.83;;;;;;;5.72;100.00;95129.06;5074318;28;20435;-77
2023/03/26 11:51:17;;;;;;;5.73;2.00;;;;;;;5.84;100.00;95123.09;5057402;28;20490;-76
2023/03/26 11:53:47;;;;;;;5.23;2.50;;;;;;;5.82;100.00;95114.78;5057527;28;20487;-76
2023/03/26 11:56:29;;;;;;;6.00;2.63;;;;;;;5.98;100.00;95128.81;5074333;28;20416;-77
2023/03/26 11:59:04;;;;;;;5.73;2.97;;;;;;;6.03;100.00;95118.16;5052808;28;20485;-77
2023/03/26 12:01:49;;;;;;;4.37;1.90;;;;;;;6.12;100.00;95116.16;5067060;28;20455;-77
2023/03/26 12:04:26;;;;;;;5.10;2.10;;;;;;;5.76;100.00;95066.28;5073873;28;20427;-77
2023/03/26 12:07:06;;;;;;;2.63;2.23;;;;;;;6.07;100.00;95103.28;5073582;28;20952;-76
2023/03/26 12:09:33;;;;;;;7.67;2.20;;;;;;;5.76;100.00;95080.16;5073880;28;20473;-77
2023/03/26 12:12:03;;;;;;;3.67;1.93;;;;;;;5.77;100.00;95055.47;5057067;28;20454;-76
2023/03/26 12:14:33;;;;;;;4.77;1.80;;;;;;;5.88;100.00;95088.03;5057484;28;20471;-76
2023/03/26 12:17:00;;;;;;;6.87;2.43;;;;;;;5.91;100.00;95086.66;5073664;28;21016;-77
2023/03/26 12:19:35;;;;;;;3.87;2.07;;;;;;;5.98;100.00;95072.97;5091821;28;20490;-76
2023/03/26 12:22:01;;;;;;;4.50;2.47;;;;;;;5.75;100.00;95046.41;5078612;28;20480;-77
2023/03/26 12:24:31;;;;;;;2.43;1.77;;;;;;;5.96;100.00;95067.28;5066714;28;20783;-77
2023/03/26 12:27:01;;;;;;;4.83;2.13;;;;;;;5.86;100.00;95061.34;5093800;28;20437;-77
2023/03/26 12:29:33;;;;;;;3.67;2.50;;;;;;;5.86;100.00;95053.47;5077931;28;20489;-77
2023/03/26 12:32:13;;;;;;;5.50;2.30;;;;;;;5.87;100.00;95041.13;5073404;28;20793;-77